Voyager Of The Seas — C6SE5 — position and weather

sailwx.info

Track history (hours):
 
Tides and Currents Weather Stations Pressure Air Temp Water Temp Dewpoint Dewpoint Depression Visibility Wind Speed Wind Dir Waves Ship Positions

Voyager Of The Seas

Operator: Royal Caribbean Cruises Ltd

Last reported at 2017-May-29 16:07 UTC. Time now 2017-May-29 20:39 UTC.
Position N 02°11' E 101°58'.

Type: Passenger vessel. MMSI: 311317000.

Date/timePositionNaut miles runAvg speedWind from/ knotsBaromVisibWave heightAir tempDewpointWater temp
2017-May-29 16:07N 02°11' E 101°58'217.9
2017-May-29 16:00N 02°10' E 101°60'917.8
2017-May-29 15:30N 02°04' E 102°07'2717.5
2017-May-29 13:59N 01°50' E 102°29'1117.9
2017-May-29 13:21N 01°46' E 102°40'4919.5
2017-May-29 10:49N 01°18' E 103°20'719.9
2017-May-29 10:29N 01°14' E 103°25'919.3
2017-May-29 10:00N 01°12' E 103°35'919.0
2017-May-29 09:31N 01°08' E 103°43'1019.0
2017-May-29 09:00N 01°13' E 103°52'3 6.8
2017-May-29 08:30N 01°16' E 103°52'0 0.0
2017-May-29 07:57N 01°16' E 103°52'0 0.0
2017-May-29 07:03N 01°16' E 103°52'0 0.0
2017-May-29 02:24N 01°16' E 103°52'0 0.0
2017-May-29 01:48N 01°16' E 103°52'0 0.0
2017-May-29 01:24N 01°16' E 103°52'0 0.0
2017-May-29 00:57N 01°16' E 103°52'0 0.0
2017-May-29 00:24N 01°16' E 103°52'0 0.0
2017-May-28 23:57N 01°16' E 103°52'0 0.0
2017-May-28 23:27N 01°16' E 103°52'1 1.3
2017-May-28 23:00N 01°15' E 103°52'4 7.4
2017-May-28 22:30N 01°12' E 103°53'611.2
2017-May-28 22:00N 01°09' E 103°48'611.0
2017-May-28 21:30N 01°06' E 103°44'510.7
2017-May-28 21:00N 01°03' E 103°39'510.3
2017-May-28 20:30N 01°05' E 103°35'510.5
2017-May-28 19:59N 01°08' E 103°30'510.4
2017-May-28 19:30N 01°11' E 103°25'510.8
2017-May-28 19:00N 01°14' E 103°21'510.6
2017-May-28 18:30N 01°17' E 103°17'3610.3
2017-May-28 15:02N 01°38' E 102°48'010.4
2017-May-28 14:59N 01°38' E 102°47'1710.0
2017-May-28 13:19N 01°45' E 102°32'3 9.8
2017-May-28 12:59N 01°46' E 102°29'511.2
2017-May-28 12:29N 01°48' E 102°24'611.1
2017-May-28 11:59N 01°51' E 102°19'1910.5
2017-May-28 10:10N 02°02' E 102°04'1210.5
2017-May-28 09:02N 02°10' E 101°55'34 0.8
2017-May-26 16:14N 01°53' E 102°24'419.2
2017-May-26 16:00N 01°51' E 102°28'5717.4
2017-May-26 12:44N 01°21' E 103°16'417.8
2017-May-26 12:30N 01°19' E 103°19'1018.9
2017-May-26 11:59N 01°13' E 103°27'919.2
2017-May-26 11:30N 01°11' E 103°36'918.4
2017-May-26 11:00N 01°09' E 103°45'816.3
2017-May-26 10:30N 01°13' E 103°52'3 6.0
2017-May-26 10:00N 01°16' E 103°52'0 0.1
2017-May-26 09:27N 01°16' E 103°52'0 0.0
2017-May-26 07:26N 01°16' E 103°52'0 0.0
2017-May-26 06:56N 01°16' E 103°52'0 0.0
2017-May-26 06:23N 01°16' E 103°52'0 0.0
2017-May-26 05:42N 01°16' E 103°52'0 0.0
2017-May-26 04:18N 01°16' E 103°52'0 0.0
2017-May-26 03:48N 01°16' E 103°52'0 0.0
2017-May-26 03:26N 01°16' E 103°52'0 0.0
2017-May-26 02:57N 01°16' E 103°52'0 0.0
2017-May-26 02:03N 01°16' E 103°52'0 0.0
2017-May-26 01:45N 01°16' E 103°52'0 0.0
2017-May-26 01:30N 01°16' E 103°52'0 0.0
2017-May-26 00:38N 01°16' E 103°52'0 0.0
2017-May-26 00:14N 01°16' E 103°52'0 0.0
2017-May-25 23:50N 01°16' E 103°52'0 0.3
2017-May-25 23:29N 01°16' E 103°52'2 5.0
2017-May-25 23:00N 01°14' E 103°53'612.8
2017-May-25 22:30N 01°10' E 103°47'1019.9
2017-May-25 22:00N 01°04' E 103°40'816.9
2017-May-25 21:31N 01°07' E 103°32'917.3
2017-May-25 21:00N 01°11' E 103°24'917.5
2017-May-25 20:30N 01°17' E 103°18'2117.5
2017-May-25 19:19N 01°29' E 103°01'717.5
2017-May-25 18:56N 01°33' E 102°55'817.2
2017-May-25 18:27N 01°37' E 102°48'817.1
2017-May-25 18:00N 01°40' E 102°41'1117.1
2017-May-25 17:21N 01°45' E 102°31'617.0
2017-May-25 17:00N 01°47' E 102°26'917.1
2017-May-25 16:30N 01°51' E 102°18'252 5.0
2017-May-23 14:40N 05°32' E 100°17'215.7
2017-May-23 14:30N 05°31' E 100°19'6 5.7
2017-May-23 13:30N 05°25' E 100°21'0 0.0
2017-May-23 13:00N 05°25' E 100°21'0 0.0
2017-May-23 12:18N 05°25' E 100°21'0 0.0
2017-May-23 12:00N 05°25' E 100°21'0 0.0
2017-May-23 11:24N 05°25' E 100°21'0 0.0
2017-May-23 11:00N 05°25' E 100°21'0 0.0
2017-May-23 10:30N 05°25' E 100°21'0 0.0
2017-May-23 10:00N 05°25' E 100°21'0 0.0
2017-May-23 09:30N 05°25' E 100°21'0 0.0
2017-May-23 09:00N 05°25' E 100°21'0 0.0
2017-May-23 08:30N 05°25' E 100°21'0 0.0
2017-May-23 08:00N 05°25' E 100°21'0 0.0
2017-May-23 07:30N 05°25' E 100°21'0 0.0
2017-May-23 06:30N 05°25' E 100°21'3 5.3
2017-May-23 06:00N 05°28' E 100°21'30816.1
2017-May-22 10:56N 01°18' E 103°21'818.1
2017-May-22 10:30N 01°14' E 103°27'918.6
2017-May-22 10:00N 01°11' E 103°36'918.2
2017-May-22 09:30N 01°09' E 103°45'816.8
2017-May-22 09:00N 01°14' E 103°52'2 0.6
2017-May-22 05:21N 01°16' E 103°52'0 0.0
2017-May-22 04:57N 01°16' E 103°52'0 0.0
2017-May-22 04:24N 01°16' E 103°52'0 0.0
2017-May-22 00:57N 01°16' E 103°52'0 0.0
2017-May-22 00:27N 01°16' E 103°52'0 0.0
2017-May-21 23:57N 01°16' E 103°52'0 0.0
2017-May-21 23:21N 01°16' E 103°52'1 2.3
2017-May-21 23:00N 01°15' E 103°52'3 6.6
2017-May-21 22:30N 01°12' E 103°52'611.8
2017-May-21 22:01N 01°09' E 103°47'611.7
2017-May-21 21:30N 01°05' E 103°43'611.2
2017-May-21 21:00N 01°04' E 103°37'612.7
2017-May-21 20:30N 01°07' E 103°32'612.6
2017-May-21 20:00N 01°10' E 103°26'612.2
2017-May-21 19:30N 01°14' E 103°21'712.4
2017-May-21 18:56N 01°19' E 103°16'4111.8
2017-May-21 15:26N 01°40' E 102°41'1012.2
2017-May-21 14:39N 01°44' E 102°33'811.7
2017-May-21 13:58N 01°48' E 102°25'511.3
2017-May-21 13:30N 01°50' E 102°20'4 8.4
2017-May-21 13:00N 01°51' E 102°17'9 0.2
2017-May-19 16:54N 01°59' E 102°12'814.3
2017-May-19 16:19N 01°56' E 102°20'  
Track history (hours):
 
Tides and Currents Weather Stations Pressure Air Temp Water Temp Dewpoint Dewpoint Depression Visibility Wind Speed Wind Dir Waves Ship Positions

Voyager Of The Seas

Operator: Royal Caribbean Cruises Ltd

Last reported at 2017-May-29 16:07 UTC. Time now 2017-May-29 20:39 UTC.
Position N 02°11' E 101°58'.

Type: Passenger vessel. MMSI: 311317000.

Date/timePositionNaut miles runAvg speedWind from/ knotsBaromVisibWave heightAir tempDewpointWater temp
2017-May-29 16:07N 02°11' E 101°58'217.9
2017-May-29 16:00N 02°10' E 101°60'917.8
2017-May-29 15:30N 02°04' E 102°07'2717.5
2017-May-29 13:59N 01°50' E 102°29'1117.9
2017-May-29 13:21N 01°46' E 102°40'4919.5
2017-May-29 10:49N 01°18' E 103°20'719.9
2017-May-29 10:29N 01°14' E 103°25'919.3
2017-May-29 10:00N 01°12' E 103°35'919.0
2017-May-29 09:31N 01°08' E 103°43'1019.0
2017-May-29 09:00N 01°13' E 103°52'3 6.8
2017-May-29 08:30N 01°16' E 103°52'0 0.0
2017-May-29 07:57N 01°16' E 103°52'0 0.0
2017-May-29 07:03N 01°16' E 103°52'0 0.0
2017-May-29 02:24N 01°16' E 103°52'0 0.0
2017-May-29 01:48N 01°16' E 103°52'0 0.0
2017-May-29 01:24N 01°16' E 103°52'0 0.0
2017-May-29 00:57N 01°16' E 103°52'0 0.0
2017-May-29 00:24N 01°16' E 103°52'0 0.0
2017-May-28 23:57N 01°16' E 103°52'0 0.0
2017-May-28 23:27N 01°16' E 103°52'1 1.3
2017-May-28 23:00N 01°15' E 103°52'4 7.4
2017-May-28 22:30N 01°12' E 103°53'611.2
2017-May-28 22:00N 01°09' E 103°48'611.0
2017-May-28 21:30N 01°06' E 103°44'510.7
2017-May-28 21:00N 01°03' E 103°39'510.3
2017-May-28 20:30N 01°05' E 103°35'510.5
2017-May-28 19:59N 01°08' E 103°30'510.4
2017-May-28 19:30N 01°11' E 103°25'510.8
2017-May-28 19:00N 01°14' E 103°21'510.6
2017-May-28 18:30N 01°17' E 103°17'3610.3
2017-May-28 15:02N 01°38' E 102°48'010.4
2017-May-28 14:59N 01°38' E 102°47'1710.0
2017-May-28 13:19N 01°45' E 102°32'3 9.8
2017-May-28 12:59N 01°46' E 102°29'511.2
2017-May-28 12:29N 01°48' E 102°24'611.1
2017-May-28 11:59N 01°51' E 102°19'1910.5
2017-May-28 10:10N 02°02' E 102°04'1210.5
2017-May-28 09:02N 02°10' E 101°55'34 0.8
2017-May-26 16:14N 01°53' E 102°24'419.2
2017-May-26 16:00N 01°51' E 102°28'5717.4
2017-May-26 12:44N 01°21' E 103°16'417.8
2017-May-26 12:30N 01°19' E 103°19'1018.9
2017-May-26 11:59N 01°13' E 103°27'919.2
2017-May-26 11:30N 01°11' E 103°36'918.4
2017-May-26 11:00N 01°09' E 103°45'816.3
2017-May-26 10:30N 01°13' E 103°52'3 6.0
2017-May-26 10:00N 01°16' E 103°52'0 0.1
2017-May-26 09:27N 01°16' E 103°52'0 0.0
2017-May-26 07:26N 01°16' E 103°52'0 0.0
2017-May-26 06:56N 01°16' E 103°52'0 0.0
2017-May-26 06:23N 01°16' E 103°52'0 0.0
2017-May-26 05:42N 01°16' E 103°52'0 0.0
2017-May-26 04:18N 01°16' E 103°52'0 0.0
2017-May-26 03:48N 01°16' E 103°52'0 0.0
2017-May-26 03:26N 01°16' E 103°52'0 0.0
2017-May-26 02:57N 01°16' E 103°52'0 0.0
2017-May-26 02:03N 01°16' E 103°52'0 0.0
2017-May-26 01:45N 01°16' E 103°52'0 0.0
2017-May-26 01:30N 01°16' E 103°52'0 0.0
2017-May-26 00:38N 01°16' E 103°52'0 0.0
2017-May-26 00:14N 01°16' E 103°52'0 0.0
2017-May-25 23:50N 01°16' E 103°52'0 0.3
2017-May-25 23:29N 01°16' E 103°52'2 5.0
2017-May-25 23:00N 01°14' E 103°53'612.8
2017-May-25 22:30N 01°10' E 103°47'1019.9
2017-May-25 22:00N 01°04' E 103°40'816.9
2017-May-25 21:31N 01°07' E 103°32'917.3
2017-May-25 21:00N 01°11' E 103°24'917.5
2017-May-25 20:30N 01°17' E 103°18'2117.5
2017-May-25 19:19N 01°29' E 103°01'717.5
2017-May-25 18:56N 01°33' E 102°55'817.2
2017-May-25 18:27N 01°37' E 102°48'817.1
2017-May-25 18:00N 01°40' E 102°41'1117.1
2017-May-25 17:21N 01°45' E 102°31'617.0
2017-May-25 17:00N 01°47' E 102°26'917.1
2017-May-25 16:30N 01°51' E 102°18'252 5.0
2017-May-23 14:40N 05°32' E 100°17'215.7
2017-May-23 14:30N 05°31' E 100°19'6 5.7
2017-May-23 13:30N 05°25' E 100°21'0 0.0
2017-May-23 13:00N 05°25' E 100°21'0 0.0
2017-May-23 12:18N 05°25' E 100°21'0 0.0
2017-May-23 12:00N 05°25' E 100°21'0 0.0
2017-May-23 11:24N 05°25' E 100°21'0 0.0
2017-May-23 11:00N 05°25' E 100°21'0 0.0
2017-May-23 10:30N 05°25' E 100°21'0 0.0
2017-May-23 10:00N 05°25' E 100°21'0 0.0
2017-May-23 09:30N 05°25' E 100°21'0 0.0
2017-May-23 09:00N 05°25' E 100°21'0 0.0
2017-May-23 08:30N 05°25' E 100°21'0 0.0
2017-May-23 08:00N 05°25' E 100°21'0 0.0
2017-May-23 07:30N 05°25' E 100°21'0 0.0
2017-May-23 06:30N 05°25' E 100°21'3 5.3
2017-May-23 06:00N 05°28' E 100°21'30816.1
2017-May-22 10:56N 01°18' E 103°21'818.1
2017-May-22 10:30N 01°14' E 103°27'918.6
2017-May-22 10:00N 01°11' E 103°36'918.2
2017-May-22 09:30N 01°09' E 103°45'816.8
2017-May-22 09:00N 01°14' E 103°52'2 0.6
2017-May-22 05:21N 01°16' E 103°52'0 0.0
2017-May-22 04:57N 01°16' E 103°52'0 0.0
2017-May-22 04:24N 01°16' E 103°52'0 0.0
2017-May-22 00:57N 01°16' E 103°52'0 0.0
2017-May-22 00:27N 01°16' E 103°52'0 0.0
2017-May-21 23:57N 01°16' E 103°52'0 0.0
2017-May-21 23:21N 01°16' E 103°52'1 2.3
2017-May-21 23:00N 01°15' E 103°52'3 6.6
2017-May-21 22:30N 01°12' E 103°52'611.8
2017-May-21 22:01N 01°09' E 103°47'611.7
2017-May-21 21:30N 01°05' E 103°43'611.2
2017-May-21 21:00N 01°04' E 103°37'612.7
2017-May-21 20:30N 01°07' E 103°32'612.6
2017-May-21 20:00N 01°10' E 103°26'612.2
2017-May-21 19:30N 01°14' E 103°21'712.4
2017-May-21 18:56N 01°19' E 103°16'4111.8
2017-May-21 15:26N 01°40' E 102°41'1012.2
2017-May-21 14:39N 01°44' E 102°33'811.7
2017-May-21 13:58N 01°48' E 102°25'511.3
2017-May-21 13:30N 01°50' E 102°20'4 8.4
2017-May-21 13:00N 01°51' E 102°17'9 0.2
2017-May-19 16:54N 01°59' E 102°12'814.3
2017-May-19 16:19N 01°56' E 102°20'  

Dump ship's entire track history